sensor_id;sensor_type;location;lat;lon;timestamp;noise_LAeq;noise_LA_min;noise_LA_max;noise_LA01;noise_LA95
46749;Laerm;33775;47.992;11.864;2023-04-24T00:01:25;36.26;29.92;39.70;;
46749;Laerm;33775;47.992;11.864;2023-04-24T00:03:50;36.34;29.92;39.46;;
46749;Laerm;33775;47.992;11.864;2023-04-24T00:06:16;36.78;29.92;39.34;;
46749;Laerm;33775;47.992;11.864;2023-04-24T00:08:41;36.92;30.54;39.34;;
46749;Laerm;33775;47.992;11.864;2023-04-24T00:11:07;36.88;29.92;39.34;;
46749;Laerm;33775;47.992;11.864;2023-04-24T00:13:34;36.76;30.89;39.46;;
46749;Laerm;33775;47.992;11.864;2023-04-24T00:15:59;36.83;29.92;39.46;;
46749;Laerm;33775;47.992;11.864;2023-04-24T00:18:24;36.80;30.89;40.13;;
46749;Laerm;33775;47.992;11.864;2023-04-24T00:20:49;36.74;30.89;39.34;;
46749;Laerm;33775;47.992;11.864;2023-04-24T00:23:15;36.73;26.91;39.70;;
46749;Laerm;33775;47.992;11.864;2023-04-24T00:25:40;36.72;30.89;39.21;;
46749;Laerm;33775;47.992;11.864;2023-04-24T00:28:05;36.75;29.92;39.70;;
46749;Laerm;33775;47.992;11.864;2023-04-24T00:30:30;36.74;30.89;39.58;;
46749;Laerm;33775;47.992;11.864;2023-04-24T00:32:55;36.70;30.89;39.21;;
46749;Laerm;33775;47.992;11.864;2023-04-24T00:35:21;36.74;29.92;39.46;;
46749;Laerm;33775;47.992;11.864;2023-04-24T00:37:46;36.70;26.91;39.21;;
46749;Laerm;33775;47.992;11.864;2023-04-24T00:40:11;36.72;31.68;39.46;;
46749;Laerm;33775;47.992;11.864;2023-04-24T00:42:36;36.70;30.54;39.34;;
46749;Laerm;33775;47.992;11.864;2023-04-24T00:45:02;36.67;30.89;39.34;;
46749;Laerm;33775;47.992;11.864;2023-04-24T00:47:28;36.63;29.92;39.34;;
46749;Laerm;33775;47.992;11.864;2023-04-24T00:49:53;36.62;31.33;39.34;;
46749;Laerm;33775;47.992;11.864;2023-04-24T00:52:18;36.62;26.91;39.46;;
46749;Laerm;33775;47.992;11.864;2023-04-24T00:54:44;36.66;28.67;39.58;;
46749;Laerm;33775;47.992;11.864;2023-04-24T00:57:10;36.62;30.89;39.46;;
46749;Laerm;33775;47.992;11.864;2023-04-24T00:59:35;36.63;30.89;39.70;;
46749;Laerm;33775;47.992;11.864;2023-04-24T01:02:01;36.63;30.89;39.34;;
46749;Laerm;33775;47.992;11.864;2023-04-24T01:04:26;36.61;29.92;39.34;;
46749;Laerm;33775;47.992;11.864;2023-04-24T01:06:52;36.60;28.67;39.46;;
46749;Laerm;33775;47.992;11.864;2023-04-24T01:09:17;36.62;30.54;39.81;;
46749;Laerm;33775;47.992;11.864;2023-04-24T01:11:43;36.58;26.91;39.46;;
46749;Laerm;33775;47.992;11.864;2023-04-24T01:14:08;36.59;29.92;39.46;;
46749;Laerm;33775;47.992;11.864;2023-04-24T01:16:33;36.61;29.92;39.58;;
46749;Laerm;33775;47.992;11.864;2023-04-24T01:18:59;36.72;29.92;39.34;;
46749;Laerm;33775;47.992;11.864;2023-04-24T01:21:24;36.81;29.92;39.58;;
46749;Laerm;33775;47.992;11.864;2023-04-24T01:23:52;36.81;29.92;39.46;;
46749;Laerm;33775;47.992;11.864;2023-04-24T01:26:18;36.81;26.91;39.70;;
46749;Laerm;33775;47.992;11.864;2023-04-24T01:28:45;36.85;26.91;39.70;;
46749;Laerm;33775;47.992;11.864;2023-04-24T01:31:10;36.89;28.67;39.70;;
46749;Laerm;33775;47.992;11.864;2023-04-24T01:33:35;36.91;29.92;39.58;;
46749;Laerm;33775;47.992;11.864;2023-04-24T01:36:01;36.94;29.92;39.34;;
46749;Laerm;33775;47.992;11.864;2023-04-24T01:38:26;36.95;29.92;40.03;;
46749;Laerm;33775;47.992;11.864;2023-04-24T01:40:51;36.93;29.92;39.46;;
46749;Laerm;33775;47.992;11.864;2023-04-24T01:43:17;36.87;28.67;39.58;;
46749;Laerm;33775;47.992;11.864;2023-04-24T01:45:43;36.80;30.89;39.46;;
46749;Laerm;33775;47.992;11.864;2023-04-24T01:48:08;36.77;29.92;39.34;;
46749;Laerm;33775;47.992;11.864;2023-04-24T01:50:33;36.73;30.89;39.34;;
46749;Laerm;33775;47.992;11.864;2023-04-24T01:52:58;36.71;29.92;39.58;;
46749;Laerm;33775;47.992;11.864;2023-04-24T01:55:24;36.72;30.89;39.34;;
46749;Laerm;33775;47.992;11.864;2023-04-24T01:57:49;36.65;30.89;39.58;;
46749;Laerm;33775;47.992;11.864;2023-04-24T02:00:15;36.69;28.67;39.58;;
46749;Laerm;33775;47.992;11.864;2023-04-24T02:02:40;36.64;29.92;39.34;;
46749;Laerm;33775;47.992;11.864;2023-04-24T02:05:06;36.67;30.89;39.58;;
46749;Laerm;33775;47.992;11.864;2023-04-24T02:07:32;36.66;31.68;39.81;;
46749;Laerm;33775;47.992;11.864;2023-04-24T02:09:57;36.70;30.89;39.46;;
46749;Laerm;33775;47.992;11.864;2023-04-24T02:12:23;36.74;30.89;39.81;;
46749;Laerm;33775;47.992;11.864;2023-04-24T02:14:48;36.78;29.57;39.46;;
46749;Laerm;33775;47.992;11.864;2023-04-24T02:17:13;36.74;28.67;39.46;;
46749;Laerm;33775;47.992;11.864;2023-04-24T02:19:40;36.75;31.68;39.58;;
46749;Laerm;33775;47.992;11.864;2023-04-24T02:22:05;36.79;32.35;40.53;;
46749;Laerm;33775;47.992;11.864;2023-04-24T02:24:30;36.77;31.68;39.58;;
46749;Laerm;33775;47.992;11.864;2023-04-24T02:26:55;36.75;31.68;39.46;;
46749;Laerm;33775;47.992;11.864;2023-04-24T02:29:21;36.74;32.35;39.70;;
46749;Laerm;33775;47.992;11.864;2023-04-24T02:31:46;36.73;30.89;39.70;;
46749;Laerm;33775;47.992;11.864;2023-04-24T02:34:11;36.72;29.92;39.81;;
46749;Laerm;33775;47.992;11.864;2023-04-24T02:36:36;36.80;29.92;39.92;;
46749;Laerm;33775;47.992;11.864;2023-04-24T02:39:01;36.77;26.91;39.46;;
46749;Laerm;33775;47.992;11.864;2023-04-24T02:41:28;36.80;30.89;40.33;;
46749;Laerm;33775;47.992;11.864;2023-04-24T02:43:56;36.83;31.68;40.33;;
46749;Laerm;33775;47.992;11.864;2023-04-24T02:46:22;36.78;31.68;39.68;;
46749;Laerm;33775;47.992;11.864;2023-04-24T02:48:47;36.84;31.33;39.81;;
46749;Laerm;33775;47.992;11.864;2023-04-24T02:51:12;36.81;30.89;39.92;;
46749;Laerm;33775;47.992;11.864;2023-04-24T02:53:37;36.76;31.68;39.92;;
46749;Laerm;33775;47.992;11.864;2023-04-24T02:56:03;36.74;30.89;39.70;;
46749;Laerm;33775;47.992;11.864;2023-04-24T02:58:28;36.73;30.89;40.23;;
46749;Laerm;33775;47.992;11.864;2023-04-24T03:00:53;36.71;31.68;39.81;;
46749;Laerm;33775;47.992;11.864;2023-04-24T03:03:20;36.73;30.89;39.46;;
46749;Laerm;33775;47.992;11.864;2023-04-24T03:05:45;36.66;30.89;39.21;;
46749;Laerm;33775;47.992;11.864;2023-04-24T03:08:11;36.63;30.89;39.70;;
46749;Laerm;33775;47.992;11.864;2023-04-24T03:10:36;36.65;30.89;39.46;;
46749;Laerm;33775;47.992;11.864;2023-04-24T03:13:01;36.62;30.89;39.46;;
46749;Laerm;33775;47.992;11.864;2023-04-24T03:15:26;36.61;30.89;39.70;;
46749;Laerm;33775;47.992;11.864;2023-04-24T03:17:51;36.64;31.68;39.46;;
46749;Laerm;33775;47.992;11.864;2023-04-24T03:20:17;36.61;29.92;39.34;;
46749;Laerm;33775;47.992;11.864;2023-04-24T03:22:42;36.60;29.92;39.81;;
46749;Laerm;33775;47.992;11.864;2023-04-24T03:25:07;36.56;29.92;39.81;;
46749;Laerm;33775;47.992;11.864;2023-04-24T03:27:34;36.56;30.89;39.70;;
46749;Laerm;33775;47.992;11.864;2023-04-24T03:29:59;36.56;30.89;39.58;;
46749;Laerm;33775;47.992;11.864;2023-04-24T03:32:25;36.53;29.92;39.11;;
46749;Laerm;33775;47.992;11.864;2023-04-24T03:34:50;36.60;31.68;39.46;;
46749;Laerm;33775;47.992;11.864;2023-04-24T03:37:16;36.73;28.67;39.21;;
46749;Laerm;33775;47.992;11.864;2023-04-24T03:39:41;36.78;29.92;39.58;;
46749;Laerm;33775;47.992;11.864;2023-04-24T03:42:07;36.79;30.89;39.46;;
46749;Laerm;33775;47.992;11.864;2023-04-24T03:44:33;36.48;28.67;39.58;;
46749;Laerm;33775;47.992;11.864;2023-04-24T03:46:58;36.36;29.92;39.46;;
46749;Laerm;33775;47.992;11.864;2023-04-24T03:49:23;36.53;29.92;39.21;;
46749;Laerm;33775;47.992;11.864;2023-04-24T03:51:48;36.91;28.67;39.46;;
46749;Laerm;33775;47.992;11.864;2023-04-24T03:54:14;36.91;28.67;39.34;;
46749;Laerm;33775;47.992;11.864;2023-04-24T03:56:39;36.89;30.89;39.35;;
46749;Laerm;33775;47.992;11.864;2023-04-24T03:59:04;36.86;29.92;39.70;;
46749;Laerm;33775;47.992;11.864;2023-04-24T04:01:29;36.78;29.92;39.81;;
46749;Laerm;33775;47.992;11.864;2023-04-24T04:03:55;36.74;30.89;39.46;;
46749;Laerm;33775;47.992;11.864;2023-04-24T04:06:20;36.73;30.89;39.58;;
46749;Laerm;33775;47.992;11.864;2023-04-24T04:08:46;36.71;29.92;39.58;;
46749;Laerm;33775;47.992;11.864;2023-04-24T04:11:11;36.71;28.67;39.58;;
46749;Laerm;33775;47.992;11.864;2023-04-24T04:13:37;36.72;29.92;39.58;;
46749;Laerm;33775;47.992;11.864;2023-04-24T04:16:02;36.69;28.67;39.46;;
46749;Laerm;33775;47.992;11.864;2023-04-24T04:18:27;36.66;28.67;39.46;;
46749;Laerm;33775;47.992;11.864;2023-04-24T04:20:52;36.69;29.92;39.34;;
46749;Laerm;33775;47.992;11.864;2023-04-24T04:23:18;36.71;29.92;39.34;;
46749;Laerm;33775;47.992;11.864;2023-04-24T04:25:43;36.70;28.67;39.70;;
46749;Laerm;33775;47.992;11.864;2023-04-24T04:28:08;36.66;29.92;39.70;;
46749;Laerm;33775;47.992;11.864;2023-04-24T04:30:33;36.67;29.92;39.81;;
46749;Laerm;33775;47.992;11.864;2023-04-24T04:32:59;36.71;30.89;39.58;;
46749;Laerm;33775;47.992;11.864;2023-04-24T04:35:24;36.70;30.89;39.35;;
46749;Laerm;33775;47.992;11.864;2023-04-24T04:37:50;36.66;26.91;39.34;;
46749;Laerm;33775;47.992;11.864;2023-04-24T04:40:16;36.74;28.67;39.34;;
46749;Laerm;33775;47.992;11.864;2023-04-24T04:42:42;36.81;23.90;39.70;;
46749;Laerm;33775;47.992;11.864;2023-04-24T04:45:10;36.85;28.67;39.35;;
46749;Laerm;33775;47.992;11.864;2023-04-24T04:47:36;36.91;31.68;39.46;;
46749;Laerm;33775;47.992;11.864;2023-04-24T04:50:01;36.93;26.91;39.70;;
46749;Laerm;33775;47.992;11.864;2023-04-24T04:52:28;36.97;30.89;39.34;;
46749;Laerm;33775;47.992;11.864;2023-04-24T04:54:54;36.97;28.67;39.46;;
46749;Laerm;33775;47.992;11.864;2023-04-24T04:57:19;36.88;29.92;39.81;;
46749;Laerm;33775;47.992;11.864;2023-04-24T04:59:45;36.92;30.89;39.70;;
46749;Laerm;33775;47.992;11.864;2023-04-24T05:02:10;36.82;29.92;39.58;;
46749;Laerm;33775;47.992;11.864;2023-04-24T05:04:36;36.81;26.91;39.70;;
46749;Laerm;33775;47.992;11.864;2023-04-24T05:07:01;36.83;5.00;39.34;;
46749;Laerm;33775;47.992;11.864;2023-04-24T05:09:26;36.85;30.89;39.34;;
46749;Laerm;33775;47.992;11.864;2023-04-24T05:11:54;36.82;30.89;39.35;;
46749;Laerm;33775;47.992;11.864;2023-04-24T05:14:19;36.83;30.89;39.21;;
46749;Laerm;33775;47.992;11.864;2023-04-24T05:16:44;36.86;30.89;39.21;;
46749;Laerm;33775;47.992;11.864;2023-04-24T05:19:09;36.94;29.92;39.70;;
46749;Laerm;33775;47.992;11.864;2023-04-24T05:21:36;36.95;30.89;39.34;;
46749;Laerm;33775;47.992;11.864;2023-04-24T05:24:01;37.02;29.92;39.08;;
46749;Laerm;33775;47.992;11.864;2023-04-24T05:26:27;37.01;30.89;39.34;;
46749;Laerm;33775;47.992;11.864;2023-04-24T05:28:52;36.95;29.92;39.46;;
46749;Laerm;33775;47.992;11.864;2023-04-24T05:31:17;36.91;30.89;39.46;;
46749;Laerm;33775;47.992;11.864;2023-04-24T05:33:42;36.85;26.91;39.46;;
46749;Laerm;33775;47.992;11.864;2023-04-24T05:36:07;36.72;30.89;39.46;;
46749;Laerm;33775;47.992;11.864;2023-04-24T05:38:33;36.70;28.67;39.46;;
46749;Laerm;33775;47.992;11.864;2023-04-24T05:40:58;36.68;29.92;39.21;;
46749;Laerm;33775;47.992;11.864;2023-04-24T05:43:23;36.66;31.68;39.21;;
46749;Laerm;33775;47.992;11.864;2023-04-24T05:45:48;36.72;32.35;39.58;;
46749;Laerm;33775;47.992;11.864;2023-04-24T05:48:14;36.70;29.92;39.58;;
46749;Laerm;33775;47.992;11.864;2023-04-24T05:50:39;36.74;30.89;39.46;;
46749;Laerm;33775;47.992;11.864;2023-04-24T05:53:05;36.79;29.92;39.81;;
46749;Laerm;33775;47.992;11.864;2023-04-24T05:55:31;36.81;30.89;40.03;;
46749;Laerm;33775;47.992;11.864;2023-04-24T05:57:57;36.81;32.35;39.81;;
46749;Laerm;33775;47.992;11.864;2023-04-24T06:00:23;36.82;32.35;39.81;;
46749;Laerm;33775;47.992;11.864;2023-04-24T06:02:48;36.92;31.68;39.92;;
46749;Laerm;33775;47.992;11.864;2023-04-24T06:05:13;36.86;31.68;39.46;;
46749;Laerm;33775;47.992;11.864;2023-04-24T06:07:39;36.91;32.35;39.81;;
46749;Laerm;33775;47.992;11.864;2023-04-24T06:10:05;36.95;31.68;40.03;;
46749;Laerm;33775;47.992;11.864;2023-04-24T06:12:31;36.94;30.89;39.92;;
46749;Laerm;33775;47.992;11.864;2023-04-24T06:14:56;36.94;30.89;39.92;;
46749;Laerm;33775;47.992;11.864;2023-04-24T06:17:21;36.97;30.89;40.23;;
46749;Laerm;33775;47.992;11.864;2023-04-24T06:19:46;36.95;30.89;39.92;;
46749;Laerm;33775;47.992;11.864;2023-04-24T06:22:11;36.98;31.68;39.81;;
46749;Laerm;33775;47.992;11.864;2023-04-24T06:24:37;36.98;31.68;40.03;;
46749;Laerm;33775;47.992;11.864;2023-04-24T06:27:02;36.96;30.89;40.13;;
46749;Laerm;33775;47.992;11.864;2023-04-24T06:29:27;36.96;29.92;39.92;;
46749;Laerm;33775;47.992;11.864;2023-04-24T06:31:53;36.97;32.35;39.70;;
46749;Laerm;33775;47.992;11.864;2023-04-24T06:34:18;36.97;31.68;40.13;;
46749;Laerm;33775;47.992;11.864;2023-04-24T06:36:43;36.98;30.89;39.81;;
46749;Laerm;33775;47.992;11.864;2023-04-24T06:39:08;36.97;32.35;40.13;;
46749;Laerm;33775;47.992;11.864;2023-04-24T06:41:34;36.98;32.35;39.58;;
46749;Laerm;33775;47.992;11.864;2023-04-24T06:43:59;36.97;30.89;40.23;;
46749;Laerm;33775;47.992;11.864;2023-04-24T06:46:24;36.97;31.68;40.03;;
46749;Laerm;33775;47.992;11.864;2023-04-24T06:48:51;36.94;31.68;39.81;;
46749;Laerm;33775;47.992;11.864;2023-04-24T06:51:16;36.96;31.68;40.71;;
46749;Laerm;33775;47.992;11.864;2023-04-24T06:53:43;36.97;30.89;40.43;;
46749;Laerm;33775;47.992;11.864;2023-04-24T06:56:08;36.91;30.89;39.92;;
46749;Laerm;33775;47.992;11.864;2023-04-24T06:58:33;36.92;31.68;39.92;;
46749;Laerm;33775;47.992;11.864;2023-04-24T07:00:58;36.95;29.57;39.92;;
46749;Laerm;33775;47.992;11.864;2023-04-24T07:03:24;36.94;30.89;40.33;;
46749;Laerm;33775;47.992;11.864;2023-04-24T07:05:49;36.93;30.89;39.92;;
46749;Laerm;33775;47.992;11.864;2023-04-24T07:08:14;36.94;30.89;39.92;;
46749;Laerm;33775;47.992;11.864;2023-04-24T07:10:42;36.91;31.68;40.13;;
46749;Laerm;33775;47.992;11.864;2023-04-24T07:13:07;36.95;32.58;39.92;;
46749;Laerm;33775;47.992;11.864;2023-04-24T07:15:33;36.90;30.89;40.13;;
46749;Laerm;33775;47.992;11.864;2023-04-24T07:17:59;36.91;31.68;39.70;;
46749;Laerm;33775;47.992;11.864;2023-04-24T07:20:24;36.87;31.68;39.81;;
46749;Laerm;33775;47.992;11.864;2023-04-24T07:22:49;36.86;31.68;40.13;;
46749;Laerm;33775;47.992;11.864;2023-04-24T07:25:14;36.85;29.92;40.13;;
46749;Laerm;33775;47.992;11.864;2023-04-24T07:27:40;36.85;30.89;39.81;;
46749;Laerm;33775;47.992;11.864;2023-04-24T07:30:05;36.86;31.68;40.03;;
46749;Laerm;33775;47.992;11.864;2023-04-24T07:32:31;36.79;30.89;39.70;;
46749;Laerm;33775;47.992;11.864;2023-04-24T07:34:57;36.80;28.67;39.58;;
46749;Laerm;33775;47.992;11.864;2023-04-24T07:37:22;36.80;31.68;40.23;;
46749;Laerm;33775;47.992;11.864;2023-04-24T07:39:48;36.78;30.89;40.03;;
46749;Laerm;33775;47.992;11.864;2023-04-24T07:42:13;36.76;30.89;40.13;;
46749;Laerm;33775;47.992;11.864;2023-04-24T07:44:38;36.76;31.68;39.81;;
46749;Laerm;33775;47.992;11.864;2023-04-24T07:47:03;36.77;30.89;39.46;;
46749;Laerm;33775;47.992;11.864;2023-04-24T07:49:29;36.76;30.89;39.70;;
46749;Laerm;33775;47.992;11.864;2023-04-24T07:51:54;36.76;30.89;40.18;;
46749;Laerm;33775;47.992;11.864;2023-04-24T07:54:19;36.77;30.89;40.13;;
46749;Laerm;33775;47.992;11.864;2023-04-24T07:56:45;36.79;29.92;39.81;;
46749;Laerm;33775;47.992;11.864;2023-04-24T07:59:11;36.80;30.89;39.70;;
46749;Laerm;33775;47.992;11.864;2023-04-24T08:01:36;36.80;31.68;39.70;;
46749;Laerm;33775;47.992;11.864;2023-04-24T08:04:02;36.83;29.57;39.92;;
46749;Laerm;33775;47.992;11.864;2023-04-24T08:06:27;36.82;29.92;39.70;;
46749;Laerm;33775;47.992;11.864;2023-04-24T08:08:56;36.85;31.68;39.58;;
46749;Laerm;33775;47.992;11.864;2023-04-24T08:11:22;36.82;31.68;39.58;;
46749;Laerm;33775;47.992;11.864;2023-04-24T08:13:47;36.85;31.68;39.92;;
46749;Laerm;33775;47.992;11.864;2023-04-24T08:16:12;36.82;31.68;39.81;;
46749;Laerm;33775;47.992;11.864;2023-04-24T08:18:37;36.80;30.89;39.81;;
46749;Laerm;33775;47.992;11.864;2023-04-24T08:21:02;36.83;30.89;39.46;;
46749;Laerm;33775;47.992;11.864;2023-04-24T08:23:28;36.80;29.57;39.70;;
46749;Laerm;33775;47.992;11.864;2023-04-24T08:25:54;36.80;30.89;39.70;;
46749;Laerm;33775;47.992;11.864;2023-04-24T08:28:19;36.76;30.89;39.46;;
46749;Laerm;33775;47.992;11.864;2023-04-24T08:30:45;36.75;28.67;39.81;;
46749;Laerm;33775;47.992;11.864;2023-04-24T08:33:10;36.74;31.68;39.46;;
46749;Laerm;33775;47.992;11.864;2023-04-24T08:35:36;36.78;30.89;39.92;;
46749;Laerm;33775;47.992;11.864;2023-04-24T08:38:01;36.75;30.89;39.70;;
46749;Laerm;33775;47.992;11.864;2023-04-24T08:40:27;36.74;30.89;40.13;;
46749;Laerm;33775;47.992;11.864;2023-04-24T08:42:54;36.77;29.92;40.03;;
46749;Laerm;33775;47.992;11.864;2023-04-24T08:45:21;36.77;32.35;40.18;;
46749;Laerm;33775;47.992;11.864;2023-04-24T08:47:46;36.75;30.89;39.70;;
46749;Laerm;33775;47.992;11.864;2023-04-24T08:50:12;36.77;29.92;39.70;;
46749;Laerm;33775;47.992;11.864;2023-04-24T08:52:38;36.76;30.89;39.81;;
46749;Laerm;33775;47.992;11.864;2023-04-24T08:55:03;36.74;29.92;39.70;;
46749;Laerm;33775;47.992;11.864;2023-04-24T08:57:28;36.80;31.68;39.46;;
46749;Laerm;33775;47.992;11.864;2023-04-24T08:59:54;36.75;30.89;39.58;;
46749;Laerm;33775;47.992;11.864;2023-04-24T09:02:19;36.78;30.89;39.70;;
46749;Laerm;33775;47.992;11.864;2023-04-24T09:04:45;36.74;30.89;39.70;;
46749;Laerm;33775;47.992;11.864;2023-04-24T09:07:12;36.81;29.92;39.81;;
46749;Laerm;33775;47.992;11.864;2023-04-24T09:09:37;36.74;30.89;39.58;;
46749;Laerm;33775;47.992;11.864;2023-04-24T09:12:03;36.79;29.92;39.81;;
46749;Laerm;33775;47.992;11.864;2023-04-24T09:14:28;36.77;31.68;40.13;;
46749;Laerm;33775;47.992;11.864;2023-04-24T09:16:56;36.78;32.35;39.70;;
46749;Laerm;33775;47.992;11.864;2023-04-24T09:19:21;36.75;30.89;39.81;;
46749;Laerm;33775;47.992;11.864;2023-04-24T09:21:47;36.74;29.92;39.92;;
46749;Laerm;33775;47.992;11.864;2023-04-24T09:24:16;36.74;29.92;39.58;;
46749;Laerm;33775;47.992;11.864;2023-04-24T09:26:47;36.76;32.35;39.92;;
46749;Laerm;33775;47.992;11.864;2023-04-24T09:29:16;36.78;32.35;39.70;;
46749;Laerm;33775;47.992;11.864;2023-04-24T09:31:41;36.78;31.68;39.70;;
46749;Laerm;33775;47.992;11.864;2023-04-24T09:34:07;36.78;30.89;39.92;;
46749;Laerm;33775;47.992;11.864;2023-04-24T09:39:03;36.78;29.92;39.92;;
46749;Laerm;33775;47.992;11.864;2023-04-24T09:41:29;36.81;30.89;39.92;;
46749;Laerm;33775;47.992;11.864;2023-04-24T09:43:55;36.80;30.89;39.81;;
46749;Laerm;33775;47.992;11.864;2023-04-24T09:46:20;36.82;32.35;39.34;;
46749;Laerm;33775;47.992;11.864;2023-04-24T09:48:48;36.88;31.68;39.92;;
46749;Laerm;33775;47.992;11.864;2023-04-24T09:51:14;36.89;29.92;39.58;;
46749;Laerm;33775;47.992;11.864;2023-04-24T09:53:44;36.94;29.92;40.03;;
46749;Laerm;33775;47.992;11.864;2023-04-24T09:56:10;36.98;32.58;39.92;;
46749;Laerm;33775;47.992;11.864;2023-04-24T09:58:37;37.04;32.35;40.23;;
46749;Laerm;33775;47.992;11.864;2023-04-24T10:01:02;37.05;28.67;39.92;;
46749;Laerm;33775;47.992;11.864;2023-04-24T10:03:31;37.07;32.93;39.58;;
46749;Laerm;33775;47.992;11.864;2023-04-24T10:06:00;37.06;31.68;39.92;;
46749;Laerm;33775;47.992;11.864;2023-04-24T10:08:25;37.06;30.89;39.92;;
46749;Laerm;33775;47.992;11.864;2023-04-24T10:10:51;37.05;31.68;39.70;;
46749;Laerm;33775;47.992;11.864;2023-04-24T10:13:17;37.06;32.35;40.03;;
46749;Laerm;33775;47.992;11.864;2023-04-24T10:15:42;37.01;32.93;39.92;;
46749;Laerm;33775;47.992;11.864;2023-04-24T10:18:08;37.06;32.35;39.81;;
46749;Laerm;33775;47.992;11.864;2023-04-24T10:20:34;37.09;32.35;39.58;;
46749;Laerm;33775;47.992;11.864;2023-04-24T10:23:00;37.14;31.68;40.13;;
46749;Laerm;33775;47.992;11.864;2023-04-24T10:25:26;37.15;30.89;39.70;;
46749;Laerm;33775;47.992;11.864;2023-04-24T10:27:52;37.15;33.44;39.92;;
46749;Laerm;33775;47.992;11.864;2023-04-24T10:30:18;37.18;32.93;40.62;;
46749;Laerm;33775;47.992;11.864;2023-04-24T10:32:44;37.21;32.93;40.23;;
46749;Laerm;33775;47.992;11.864;2023-04-24T10:35:10;37.20;32.35;40.03;;
46749;Laerm;33775;47.992;11.864;2023-04-24T10:37:37;37.24;32.35;40.13;;
46749;Laerm;33775;47.992;11.864;2023-04-24T10:40:03;37.24;32.35;40.03;;
46749;Laerm;33775;47.992;11.864;2023-04-24T10:42:29;37.20;32.35;39.81;;
46749;Laerm;33775;47.992;11.864;2023-04-24T10:44:54;37.22;31.68;39.92;;
46749;Laerm;33775;47.992;11.864;2023-04-24T10:47:20;37.20;32.93;40.03;;
46749;Laerm;33775;47.992;11.864;2023-04-24T10:49:46;37.22;32.35;39.92;;
46749;Laerm;33775;47.992;11.864;2023-04-24T10:52:11;37.18;32.93;39.70;;
46749;Laerm;33775;47.992;11.864;2023-04-24T10:59:42;37.21;33.90;40.33;;
46749;Laerm;33775;47.992;11.864;2023-04-24T11:02:07;37.17;32.93;39.81;;
46749;Laerm;33775;47.992;11.864;2023-04-24T11:04:33;37.18;32.35;40.13;;
46749;Laerm;33775;47.992;11.864;2023-04-24T11:07:00;37.17;32.35;39.92;;
46749;Laerm;33775;47.992;11.864;2023-04-24T11:09:28;37.14;32.35;39.92;;
46749;Laerm;33775;47.992;11.864;2023-04-24T11:14:31;37.16;32.35;39.81;;
46749;Laerm;33775;47.992;11.864;2023-04-24T11:17:33;37.13;32.35;39.92;;
46749;Laerm;33775;47.992;11.864;2023-04-24T11:20:05;37.12;31.68;39.70;;
46749;Laerm;33775;47.992;11.864;2023-04-24T11:22:37;37.10;31.68;39.70;;
46749;Laerm;33775;47.992;11.864;2023-04-24T11:25:04;37.09;32.93;39.92;;
46749;Laerm;33775;47.992;11.864;2023-04-24T11:27:31;37.07;32.35;40.03;;
46749;Laerm;33775;47.992;11.864;2023-04-24T11:32:27;37.12;32.35;40.03;;
46749;Laerm;33775;47.992;11.864;2023-04-24T11:34:56;37.14;33.09;40.03;;
46749;Laerm;33775;47.992;11.864;2023-04-24T11:37:22;37.20;32.93;39.92;;
46749;Laerm;33775;47.992;11.864;2023-04-24T11:39:53;37.21;32.93;39.70;;
46749;Laerm;33775;47.992;11.864;2023-04-24T11:42:18;37.24;32.93;39.81;;
46749;Laerm;33775;47.992;11.864;2023-04-24T11:44:44;37.26;32.35;40.33;;
46749;Laerm;33775;47.992;11.864;2023-04-24T11:47:12;37.22;32.93;39.81;;
46749;Laerm;33775;47.992;11.864;2023-04-24T11:49:37;37.19;32.35;39.70;;
46749;Laerm;33775;47.992;11.864;2023-04-24T11:52:03;37.19;32.93;40.03;;
46749;Laerm;33775;47.992;11.864;2023-04-24T11:54:28;37.21;32.93;39.92;;
46749;Laerm;33775;47.992;11.864;2023-04-24T11:56:55;37.16;30.89;39.70;;
46749;Laerm;33775;47.992;11.864;2023-04-24T11:59:21;37.24;32.35;40.03;;
46749;Laerm;33775;47.992;11.864;2023-04-24T12:01:46;37.19;32.93;40.03;;
46749;Laerm;33775;47.992;11.864;2023-04-24T12:04:12;37.21;31.68;39.70;;
46749;Laerm;33775;47.992;11.864;2023-04-24T12:06:37;37.21;32.93;40.23;;
46749;Laerm;33775;47.992;11.864;2023-04-24T12:09:03;37.29;32.35;40.71;;
46749;Laerm;33775;47.992;11.864;2023-04-24T12:11:28;37.20;32.35;40.23;;
46749;Laerm;33775;47.992;11.864;2023-04-24T12:13:54;37.24;33.44;40.13;;
46749;Laerm;33775;47.992;11.864;2023-04-24T12:16:19;37.33;32.35;41.30;;
46749;Laerm;33775;47.992;11.864;2023-04-24T12:18:45;37.28;32.35;40.03;;
46749;Laerm;33775;47.992;11.864;2023-04-24T12:21:23;37.21;31.68;40.13;;
46749;Laerm;33775;47.992;11.864;2023-04-24T12:23:54;37.21;32.93;40.13;;
46749;Laerm;33775;47.992;11.864;2023-04-24T12:26:19;37.21;32.93;39.92;;
46749;Laerm;33775;47.992;11.864;2023-04-24T12:28:49;37.15;31.68;40.43;;
46749;Laerm;33775;47.992;11.864;2023-04-24T12:31:15;37.16;32.35;40.23;;
46749;Laerm;33775;47.992;11.864;2023-04-24T12:33:40;37.15;31.68;40.43;;
46749;Laerm;33775;47.992;11.864;2023-04-24T12:36:06;37.12;32.35;40.03;;
46749;Laerm;33775;47.992;11.864;2023-04-24T12:38:31;37.11;32.35;39.92;;
46749;Laerm;33775;47.992;11.864;2023-04-24T12:41:08;37.10;31.68;39.92;;
46749;Laerm;33775;47.992;11.864;2023-04-24T12:43:34;36.55;28.67;39.46;;
46749;Laerm;33775;47.992;11.864;2023-04-24T12:45:59;36.36;30.89;39.46;;
46749;Laerm;33775;47.992;11.864;2023-04-24T12:48:25;36.42;28.67;39.70;;
46749;Laerm;33775;47.992;11.864;2023-04-24T12:50:51;36.36;28.67;39.46;;
46749;Laerm;33775;47.992;11.864;2023-04-24T12:53:16;36.43;29.92;39.46;;
46749;Laerm;33775;47.992;11.864;2023-04-24T12:55:41;36.52;29.92;39.46;;
46749;Laerm;33775;47.992;11.864;2023-04-24T12:58:07;36.57;30.89;39.70;;
46749;Laerm;33775;47.992;11.864;2023-04-24T13:00:32;36.68;31.68;39.58;;
46749;Laerm;33775;47.992;11.864;2023-04-24T13:02:58;36.92;31.68;39.58;;
46749;Laerm;33775;47.992;11.864;2023-04-24T13:05:23;36.80;32.35;40.03;;
46749;Laerm;33775;47.992;11.864;2023-04-24T13:07:48;36.89;31.68;39.92;;
46749;Laerm;33775;47.992;11.864;2023-04-24T13:10:13;36.97;31.68;40.03;;
46749;Laerm;33775;47.992;11.864;2023-04-24T13:12:39;36.94;32.35;40.03;;
46749;Laerm;33775;47.992;11.864;2023-04-24T13:15:05;36.99;31.68;39.81;;
46749;Laerm;33775;47.992;11.864;2023-04-24T13:17:30;36.89;31.68;39.70;;
46749;Laerm;33775;47.992;11.864;2023-04-24T13:19:56;36.83;29.92;39.34;;
46749;Laerm;33775;47.992;11.864;2023-04-24T13:22:21;36.76;28.67;39.92;;
46749;Laerm;33775;47.992;11.864;2023-04-24T13:24:46;36.77;31.68;39.70;;
46749;Laerm;33775;47.992;11.864;2023-04-24T13:27:14;36.87;32.35;39.81;;
46749;Laerm;33775;47.992;11.864;2023-04-24T13:29:39;36.92;30.89;40.13;;
46749;Laerm;33775;47.992;11.864;2023-04-24T13:32:05;37.00;32.35;39.81;;
46749;Laerm;33775;47.992;11.864;2023-04-24T13:34:30;36.96;32.35;39.81;;
46749;Laerm;33775;47.992;11.864;2023-04-24T13:36:56;36.97;31.68;40.03;;